sensor_id;sensor_type;location;lat;lon;timestamp;pressure;altitude;pressure_sealevel;temperature;humidity
74905;BME280;63465;50.862;6.220;2022-10-18T00:01:30;100868.75;;;15.33;86.63
74905;BME280;63465;50.862;6.220;2022-10-18T00:03:58;100866.63;;;15.75;85.75
74905;BME280;63465;50.862;6.220;2022-10-18T00:06:24;100862.13;;;15.76;85.26
74905;BME280;63465;50.862;6.220;2022-10-18T00:08:51;100858.22;;;15.65;85.66
74905;BME280;63465;50.862;6.220;2022-10-18T00:11:18;100861.16;;;15.61;86.06
74905;BME280;63465;50.862;6.220;2022-10-18T00:13:44;100852.28;;;15.78;85.93
74905;BME280;63465;50.862;6.220;2022-10-18T00:16:13;100848.91;;;15.73;85.60
74905;BME280;63465;50.862;6.220;2022-10-18T00:18:40;100851.84;;;15.68;85.70
74905;BME280;63465;50.862;6.220;2022-10-18T00:21:11;100857.50;;;15.97;84.71
74905;BME280;63465;50.862;6.220;2022-10-18T00:23:38;100848.75;;;15.76;85.32
74905;BME280;63465;50.862;6.220;2022-10-18T00:26:06;100842.63;;;15.74;85.64
74905;BME280;63465;50.862;6.220;2022-10-18T00:28:34;100841.41;;;15.81;85.50
74905;BME280;63465;50.862;6.220;2022-10-18T00:31:12;100848.06;;;15.72;85.68
74905;BME280;63465;50.862;6.220;2022-10-18T00:33:39;100851.59;;;15.73;86.11
74905;BME280;63465;50.862;6.220;2022-10-18T00:36:08;100845.31;;;15.74;85.99
74905;BME280;63465;50.862;6.220;2022-10-18T00:38:35;100844.63;;;15.70;86.13
74905;BME280;63465;50.862;6.220;2022-10-18T00:41:03;100845.94;;;15.61;86.22
74905;BME280;63465;50.862;6.220;2022-10-18T00:43:30;100843.03;;;15.66;86.14
74905;BME280;63465;50.862;6.220;2022-10-18T00:45:57;100848.22;;;15.69;85.96
74905;BME280;63465;50.862;6.220;2022-10-18T00:48:24;100845.78;;;15.64;86.04
74905;BME280;63465;50.862;6.220;2022-10-18T00:50:51;100845.16;;;15.59;86.18
74905;BME280;63465;50.862;6.220;2022-10-18T00:53:21;100838.41;;;15.52;86.25
74905;BME280;63465;50.862;6.220;2022-10-18T00:55:48;100841.84;;;15.54;86.49
74905;BME280;63465;50.862;6.220;2022-10-18T00:58:16;100835.41;;;15.58;86.30
74905;BME280;63465;50.862;6.220;2022-10-18T01:00:44;100841.63;;;15.59;86.19
74905;BME280;63465;50.862;6.220;2022-10-18T01:03:10;100839.97;;;15.56;86.37
74905;BME280;63465;50.862;6.220;2022-10-18T01:05:41;100846.56;;;15.66;86.52
74905;BME280;63465;50.862;6.220;2022-10-18T01:08:29;100837.72;;;15.83;85.68
74905;BME280;63465;50.862;6.220;2022-10-18T01:11:10;100841.63;;;15.94;85.47
74905;BME280;63465;50.862;6.220;2022-10-18T01:13:49;100839.50;;;16.00;84.89
74905;BME280;63465;50.862;6.220;2022-10-18T01:16:24;100842.38;;;16.13;84.61
74905;BME280;63465;50.862;6.220;2022-10-18T01:18:56;100850.38;;;15.97;85.06
74905;BME280;63465;50.862;6.220;2022-10-18T01:21:35;100850.66;;;15.74;86.03
74905;BME280;63465;50.862;6.220;2022-10-18T01:24:18;100845.94;;;15.79;85.98
74905;BME280;63465;50.862;6.220;2022-10-18T01:27:17;100850.44;;;15.78;86.26
74905;BME280;63465;50.862;6.220;2022-10-18T01:30:02;100856.44;;;15.83;85.94
74905;BME280;63465;50.862;6.220;2022-10-18T01:32:36;100852.72;;;16.03;85.53
74905;BME280;63465;50.862;6.220;2022-10-18T01:35:09;100856.50;;;15.99;85.24
74905;BME280;63465;50.862;6.220;2022-10-18T01:37:38;100854.78;;;15.81;85.85
74905;BME280;63465;50.862;6.220;2022-10-18T01:40:10;100852.63;;;15.70;86.45
74905;BME280;63465;50.862;6.220;2022-10-18T01:42:39;100856.19;;;15.70;86.58
74905;BME280;63465;50.862;6.220;2022-10-18T01:45:07;100856.34;;;15.67;86.70
74905;BME280;63465;50.862;6.220;2022-10-18T01:47:36;100849.00;;;15.71;86.47
74905;BME280;63465;50.862;6.220;2022-10-18T01:50:05;100855.25;;;15.72;86.45
74905;BME280;63465;50.862;6.220;2022-10-18T01:52:31;100846.31;;;15.71;86.50
74905;BME280;63465;50.862;6.220;2022-10-18T01:54:59;100857.91;;;15.72;86.46
74905;BME280;63465;50.862;6.220;2022-10-18T01:57:31;100856.94;;;15.73;86.57
74905;BME280;63465;50.862;6.220;2022-10-18T02:00:04;100855.84;;;15.77;86.41
74905;BME280;63465;50.862;6.220;2022-10-18T02:02:45;100856.66;;;15.79;86.15
74905;BME280;63465;50.862;6.220;2022-10-18T02:05:21;100859.03;;;15.85;86.08
74905;BME280;63465;50.862;6.220;2022-10-18T02:07:53;100859.66;;;15.90;85.71
74905;BME280;63465;50.862;6.220;2022-10-18T02:10:27;100855.25;;;15.89;85.71
74905;BME280;63465;50.862;6.220;2022-10-18T02:12:56;100854.91;;;15.95;85.36
74905;BME280;63465;50.862;6.220;2022-10-18T02:15:30;100858.09;;;15.86;85.62
74905;BME280;63465;50.862;6.220;2022-10-18T02:18:00;100861.25;;;15.94;85.11
74905;BME280;63465;50.862;6.220;2022-10-18T02:20:28;100865.53;;;15.97;85.21
74905;BME280;63465;50.862;6.220;2022-10-18T02:22:58;100856.81;;;15.93;85.31
74905;BME280;63465;50.862;6.220;2022-10-18T02:25:28;100862.16;;;15.93;85.43
74905;BME280;63465;50.862;6.220;2022-10-18T02:27:56;100866.09;;;15.86;85.56
74905;BME280;63465;50.862;6.220;2022-10-18T02:30:26;100867.84;;;15.87;85.63
74905;BME280;63465;50.862;6.220;2022-10-18T02:32:57;100859.66;;;15.90;85.55
74905;BME280;63465;50.862;6.220;2022-10-18T02:35:30;100862.81;;;15.81;86.05
74905;BME280;63465;50.862;6.220;2022-10-18T02:37:58;100859.56;;;15.92;85.47
74905;BME280;63465;50.862;6.220;2022-10-18T02:40:25;100859.41;;;15.95;85.31
74905;BME280;63465;50.862;6.220;2022-10-18T02:42:54;100861.72;;;15.85;85.43
74905;BME280;63465;50.862;6.220;2022-10-18T02:45:21;100857.63;;;15.78;85.76
74905;BME280;63465;50.862;6.220;2022-10-18T02:47:48;100855.72;;;15.80;85.87
74905;BME280;63465;50.862;6.220;2022-10-18T02:50:15;100853.97;;;15.79;85.69
74905;BME280;63465;50.862;6.220;2022-10-18T02:52:43;100848.25;;;15.86;85.76
74905;BME280;63465;50.862;6.220;2022-10-18T02:55:10;100853.97;;;15.79;85.80
74905;BME280;63465;50.862;6.220;2022-10-18T02:57:37;100856.88;;;15.74;85.85
74905;BME280;63465;50.862;6.220;2022-10-18T03:00:05;100848.84;;;15.74;85.92
74905;BME280;63465;50.862;6.220;2022-10-18T03:02:31;100841.69;;;15.75;86.00
74905;BME280;63465;50.862;6.220;2022-10-18T03:04:58;100840.81;;;15.74;85.95
74905;BME280;63465;50.862;6.220;2022-10-18T03:07:25;100842.72;;;15.72;86.28
74905;BME280;63465;50.862;6.220;2022-10-18T03:09:53;100840.03;;;15.72;86.06
74905;BME280;63465;50.862;6.220;2022-10-18T03:12:20;100832.53;;;15.80;85.67
74905;BME280;63465;50.862;6.220;2022-10-18T03:14:46;100831.16;;;15.72;85.96
74905;BME280;63465;50.862;6.220;2022-10-18T03:17:13;100835.84;;;15.66;86.02
74905;BME280;63465;50.862;6.220;2022-10-18T03:19:40;100836.50;;;15.89;85.61
74905;BME280;63465;50.862;6.220;2022-10-18T03:22:06;100826.44;;;15.94;85.27
74905;BME280;63465;50.862;6.220;2022-10-18T03:24:33;100831.28;;;16.03;84.69
74905;BME280;63465;50.862;6.220;2022-10-18T03:27:01;100828.19;;;16.11;84.23
74905;BME280;63465;50.862;6.220;2022-10-18T03:29:28;100835.34;;;16.11;84.07
74905;BME280;63465;50.862;6.220;2022-10-18T03:31:54;100830.75;;;15.97;84.60
74905;BME280;63465;50.862;6.220;2022-10-18T03:34:21;100835.13;;;15.82;84.95
74905;BME280;63465;50.862;6.220;2022-10-18T03:36:48;100841.38;;;15.63;86.17
74905;BME280;63465;50.862;6.220;2022-10-18T03:39:14;100840.59;;;15.61;86.18
74905;BME280;63465;50.862;6.220;2022-10-18T03:41:41;100839.66;;;15.62;86.37
74905;BME280;63465;50.862;6.220;2022-10-18T03:44:09;100843.03;;;15.66;86.28
74905;BME280;63465;50.862;6.220;2022-10-18T03:46:36;100844.38;;;15.57;86.53
74905;BME280;63465;50.862;6.220;2022-10-18T03:49:02;100853.66;;;15.67;86.68
74905;BME280;63465;50.862;6.220;2022-10-18T03:51:29;100847.53;;;15.83;85.79
74905;BME280;63465;50.862;6.220;2022-10-18T03:53:56;100846.56;;;16.01;84.99
74905;BME280;63465;50.862;6.220;2022-10-18T03:56:22;100848.50;;;15.82;84.80
74905;BME280;63465;50.862;6.220;2022-10-18T03:58:49;100846.59;;;15.84;85.24
74905;BME280;63465;50.862;6.220;2022-10-18T04:01:17;100844.44;;;15.73;85.60
74905;BME280;63465;50.862;6.220;2022-10-18T04:03:44;100847.91;;;15.75;85.69
74905;BME280;63465;50.862;6.220;2022-10-18T04:06:10;100857.47;;;15.81;85.49
74905;BME280;63465;50.862;6.220;2022-10-18T04:08:37;100852.28;;;15.78;85.52
74905;BME280;63465;50.862;6.220;2022-10-18T04:11:05;100863.50;;;15.67;86.20
74905;BME280;63465;50.862;6.220;2022-10-18T04:13:34;100858.72;;;15.91;85.16
74905;BME280;63465;50.862;6.220;2022-10-18T04:16:01;100854.09;;;15.76;85.62
74905;BME280;63465;50.862;6.220;2022-10-18T04:18:29;100850.66;;;15.74;85.85
74905;BME280;63465;50.862;6.220;2022-10-18T04:20:56;100866.56;;;15.77;85.29
74905;BME280;63465;50.862;6.220;2022-10-18T04:23:23;100864.31;;;15.86;85.40
74905;BME280;63465;50.862;6.220;2022-10-18T04:25:49;100867.50;;;15.76;85.43
74905;BME280;63465;50.862;6.220;2022-10-18T04:28:16;100867.31;;;15.80;85.30
74905;BME280;63465;50.862;6.220;2022-10-18T04:30:48;100863.19;;;15.73;85.62
74905;BME280;63465;50.862;6.220;2022-10-18T04:33:15;100870.94;;;15.79;85.26
74905;BME280;63465;50.862;6.220;2022-10-18T04:35:43;100866.19;;;15.84;85.16
74905;BME280;63465;50.862;6.220;2022-10-18T04:38:09;100873.81;;;15.75;85.63
74905;BME280;63465;50.862;6.220;2022-10-18T04:40:37;100871.00;;;15.78;85.59
74905;BME280;63465;50.862;6.220;2022-10-18T04:43:13;100876.66;;;15.89;84.94
74905;BME280;63465;50.862;6.220;2022-10-18T04:45:40;100876.56;;;15.91;85.05
74905;BME280;63465;50.862;6.220;2022-10-18T04:48:07;100873.41;;;16.00;84.79
74905;BME280;63465;50.862;6.220;2022-10-18T04:50:33;100873.19;;;15.87;85.13
74905;BME280;63465;50.862;6.220;2022-10-18T04:53:01;100872.59;;;15.82;85.45
74905;BME280;63465;50.862;6.220;2022-10-18T04:55:28;100870.84;;;15.81;85.71
74905;BME280;63465;50.862;6.220;2022-10-18T04:57:55;100867.31;;;15.80;85.52
74905;BME280;63465;50.862;6.220;2022-10-18T05:00:21;100863.19;;;15.73;85.78
74905;BME280;63465;50.862;6.220;2022-10-18T05:02:48;100870.50;;;15.69;86.08
74905;BME280;63465;50.862;6.220;2022-10-18T05:05:15;100874.13;;;15.68;86.12
74905;BME280;63465;50.862;6.220;2022-10-18T05:07:41;100877.13;;;15.80;85.93
74905;BME280;63465;50.862;6.220;2022-10-18T05:10:09;100881.56;;;15.81;85.99
74905;BME280;63465;50.862;6.220;2022-10-18T05:12:36;100874.47;;;15.80;86.07
74905;BME280;63465;50.862;6.220;2022-10-18T05:15:03;100886.09;;;15.79;86.30
74905;BME280;63465;50.862;6.220;2022-10-18T05:17:30;100880.75;;;15.79;85.71
74905;BME280;63465;50.862;6.220;2022-10-18T05:19:57;100890.72;;;15.75;86.25
74905;BME280;63465;50.862;6.220;2022-10-18T05:22:24;100900.72;;;15.72;86.55
74905;BME280;63465;50.862;6.220;2022-10-18T05:24:50;100900.00;;;15.68;86.64
74905;BME280;63465;50.862;6.220;2022-10-18T05:27:18;100890.50;;;15.62;86.74
74905;BME280;63465;50.862;6.220;2022-10-18T05:29:45;100898.69;;;15.59;86.92
74905;BME280;63465;50.862;6.220;2022-10-18T05:32:11;100885.63;;;15.53;87.11
74905;BME280;63465;50.862;6.220;2022-10-18T05:34:38;100892.69;;;15.54;87.03
74905;BME280;63465;50.862;6.220;2022-10-18T05:37:05;100889.06;;;15.55;86.98
74905;BME280;63465;50.862;6.220;2022-10-18T05:39:32;100887.91;;;15.61;86.72
74905;BME280;63465;50.862;6.220;2022-10-18T05:41:58;100891.28;;;15.64;86.46
74905;BME280;63465;50.862;6.220;2022-10-18T05:44:26;100893.78;;;15.67;86.46
74905;BME280;63465;50.862;6.220;2022-10-18T05:46:53;100890.41;;;15.64;86.40
74905;BME280;63465;50.862;6.220;2022-10-18T05:49:20;100891.13;;;15.67;86.08
74905;BME280;63465;50.862;6.220;2022-10-18T05:51:46;100894.56;;;15.69;86.08
74905;BME280;63465;50.862;6.220;2022-10-18T05:54:13;100883.25;;;15.64;86.23
74905;BME280;63465;50.862;6.220;2022-10-18T05:56:40;100880.09;;;15.74;85.96
74905;BME280;63465;50.862;6.220;2022-10-18T05:59:07;100884.19;;;15.63;86.35
74905;BME280;63465;50.862;6.220;2022-10-18T06:01:38;100887.28;;;15.73;86.02
74905;BME280;63465;50.862;6.220;2022-10-18T06:04:05;100888.97;;;15.74;85.85
74905;BME280;63465;50.862;6.220;2022-10-18T06:06:32;100890.88;;;15.72;86.00
74905;BME280;63465;50.862;6.220;2022-10-18T06:08:59;100899.44;;;15.80;85.96
74905;BME280;63465;50.862;6.220;2022-10-18T06:11:28;100898.66;;;15.77;85.72
74905;BME280;63465;50.862;6.220;2022-10-18T06:13:56;100906.09;;;15.72;85.70
74905;BME280;63465;50.862;6.220;2022-10-18T06:16:24;100895.31;;;15.73;85.77
74905;BME280;63465;50.862;6.220;2022-10-18T06:18:53;100899.84;;;15.71;85.94
74905;BME280;63465;50.862;6.220;2022-10-18T06:21:21;100897.63;;;15.81;85.69
74905;BME280;63465;50.862;6.220;2022-10-18T06:23:49;100900.81;;;15.70;85.98
74905;BME280;63465;50.862;6.220;2022-10-18T06:26:16;100896.09;;;15.58;86.50
74905;BME280;63465;50.862;6.220;2022-10-18T06:28:43;100899.34;;;15.82;85.83
74905;BME280;63465;50.862;6.220;2022-10-18T06:31:11;100904.19;;;15.74;85.92
74905;BME280;63465;50.862;6.220;2022-10-18T06:33:37;100904.97;;;15.76;85.72
74905;BME280;63465;50.862;6.220;2022-10-18T06:36:08;100903.56;;;15.68;86.14
74905;BME280;63465;50.862;6.220;2022-10-18T06:38:36;100907.09;;;15.69;85.94
74905;BME280;63465;50.862;6.220;2022-10-18T06:41:03;100912.44;;;15.69;86.29
74905;BME280;63465;50.862;6.220;2022-10-18T06:43:30;100913.63;;;15.63;86.14
74905;BME280;63465;50.862;6.220;2022-10-18T06:45:57;100920.72;;;15.64;86.50
74905;BME280;63465;50.862;6.220;2022-10-18T06:48:23;100933.94;;;15.67;86.23
74905;BME280;63465;50.862;6.220;2022-10-18T06:50:52;100929.34;;;15.69;86.30
74905;BME280;63465;50.862;6.220;2022-10-18T06:53:20;100920.94;;;15.60;86.52
74905;BME280;63465;50.862;6.220;2022-10-18T06:55:47;100924.75;;;15.73;86.26
74905;BME280;63465;50.862;6.220;2022-10-18T06:58:13;100933.47;;;15.77;85.80
74905;BME280;63465;50.862;6.220;2022-10-18T07:00:40;100934.78;;;15.87;85.90
74905;BME280;63465;50.862;6.220;2022-10-18T07:03:06;100940.00;;;15.71;86.21
74905;BME280;63465;50.862;6.220;2022-10-18T07:05:33;100941.81;;;15.70;86.40
74905;BME280;63465;50.862;6.220;2022-10-18T07:08:00;100941.66;;;15.74;86.29
74905;BME280;63465;50.862;6.220;2022-10-18T07:10:28;100937.06;;;15.76;86.16
74905;BME280;63465;50.862;6.220;2022-10-18T07:12:55;100946.81;;;15.78;86.21
74905;BME280;63465;50.862;6.220;2022-10-18T07:15:21;100944.03;;;15.80;85.86
74905;BME280;63465;50.862;6.220;2022-10-18T07:17:49;100954.84;;;15.78;86.26
74905;BME280;63465;50.862;6.220;2022-10-18T07:20:16;100952.56;;;15.88;86.08
74905;BME280;63465;50.862;6.220;2022-10-18T07:22:42;100960.13;;;15.97;85.67
74905;BME280;63465;50.862;6.220;2022-10-18T07:25:09;100953.19;;;15.93;85.46
74905;BME280;63465;50.862;6.220;2022-10-18T07:27:38;100961.75;;;16.00;85.28
74905;BME280;63465;50.862;6.220;2022-10-18T07:30:07;100968.78;;;16.02;85.13
74905;BME280;63465;50.862;6.220;2022-10-18T07:32:34;100977.13;;;16.14;84.74
74905;BME280;63465;50.862;6.220;2022-10-18T07:35:01;100973.97;;;16.05;84.92
74905;BME280;63465;50.862;6.220;2022-10-18T07:37:29;100973.66;;;16.12;84.62
74905;BME280;63465;50.862;6.220;2022-10-18T07:39:55;100984.06;;;16.18;84.20
74905;BME280;63465;50.862;6.220;2022-10-18T07:42:22;100985.94;;;16.16;84.59
74905;BME280;63465;50.862;6.220;2022-10-18T07:44:50;100991.63;;;16.10;85.33
74905;BME280;63465;50.862;6.220;2022-10-18T07:47:17;100997.13;;;16.07;85.51
74905;BME280;63465;50.862;6.220;2022-10-18T07:49:43;100999.31;;;15.98;85.42
74905;BME280;63465;50.862;6.220;2022-10-18T07:52:11;100996.81;;;16.13;85.29
74905;BME280;63465;50.862;6.220;2022-10-18T07:54:37;100993.88;;;16.35;84.92
74905;BME280;63465;50.862;6.220;2022-10-18T07:57:04;100993.81;;;16.36;84.06
74905;BME280;63465;50.862;6.220;2022-10-18T07:59:30;101003.19;;;16.45;83.87
74905;BME280;63465;50.862;6.220;2022-10-18T08:01:58;101004.84;;;16.48;83.99
74905;BME280;63465;50.862;6.220;2022-10-18T08:04:25;101003.28;;;16.59;82.94
74905;BME280;63465;50.862;6.220;2022-10-18T08:06:52;100996.94;;;16.45;83.33
74905;BME280;63465;50.862;6.220;2022-10-18T08:09:18;101004.34;;;16.57;83.58
74905;BME280;63465;50.862;6.220;2022-10-18T08:11:45;101001.19;;;16.49;83.08
74905;BME280;63465;50.862;6.220;2022-10-18T08:14:12;101012.31;;;16.58;82.61
74905;BME280;63465;50.862;6.220;2022-10-18T08:16:39;101012.38;;;16.39;82.89
74905;BME280;63465;50.862;6.220;2022-10-18T08:19:07;101022.94;;;16.43;83.18
74905;BME280;63465;50.862;6.220;2022-10-18T08:21:34;101025.72;;;16.58;83.44
74905;BME280;63465;50.862;6.220;2022-10-18T08:24:01;101020.34;;;16.58;82.28
74905;BME280;63465;50.862;6.220;2022-10-18T08:26:27;101026.88;;;16.53;82.18
74905;BME280;63465;50.862;6.220;2022-10-18T08:28:54;101021.53;;;16.53;82.44
74905;BME280;63465;50.862;6.220;2022-10-18T08:31:21;101036.34;;;16.60;82.61
74905;BME280;63465;50.862;6.220;2022-10-18T08:33:47;101032.19;;;16.19;84.25
74905;BME280;63465;50.862;6.220;2022-10-18T08:36:15;101043.81;;;16.01;84.91
74905;BME280;63465;50.862;6.220;2022-10-18T08:38:43;101038.69;;;16.14;84.38
74905;BME280;63465;50.862;6.220;2022-10-18T08:41:24;101041.53;;;16.11;84.70
74905;BME280;63465;50.862;6.220;2022-10-18T08:43:57;101043.03;;;16.16;85.01
74905;BME280;63465;50.862;6.220;2022-10-18T08:46:29;101045.50;;;16.21;84.37
74905;BME280;63465;50.862;6.220;2022-10-18T08:48:58;101050.84;;;16.21;84.00
74905;BME280;63465;50.862;6.220;2022-10-18T08:51:30;101043.59;;;16.40;83.88
74905;BME280;63465;50.862;6.220;2022-10-18T08:54:03;101037.91;;;16.29;83.68
74905;BME280;63465;50.862;6.220;2022-10-18T08:56:32;101033.41;;;16.65;83.10
74905;BME280;63465;50.862;6.220;2022-10-18T08:59:01;101033.16;;;16.69;82.40
74905;BME280;63465;50.862;6.220;2022-10-18T09:01:36;101038.63;;;16.68;82.18
74905;BME280;63465;50.862;6.220;2022-10-18T09:04:20;101039.88;;;16.61;82.46
74905;BME280;63465;50.862;6.220;2022-10-18T09:06:54;101047.06;;;16.60;82.04
74905;BME280;63465;50.862;6.220;2022-10-18T09:09:30;101040.94;;;16.40;82.77
74905;BME280;63465;50.862;6.220;2022-10-18T09:12:12;101035.03;;;16.67;81.86
74905;BME280;63465;50.862;6.220;2022-10-18T09:15:03;101039.38;;;16.70;81.72
74905;BME280;63465;50.862;6.220;2022-10-18T09:17:40;101046.16;;;16.77;81.90
74905;BME280;63465;50.862;6.220;2022-10-18T09:20:19;101056.31;;;16.70;81.71
74905;BME280;63465;50.862;6.220;2022-10-18T09:22:54;101051.78;;;16.72;81.19
74905;BME280;63465;50.862;6.220;2022-10-18T09:25:23;101058.59;;;16.78;81.88
74905;BME280;63465;50.862;6.220;2022-10-18T09:27:52;101055.75;;;16.99;81.14
74905;BME280;63465;50.862;6.220;2022-10-18T09:30:26;101066.50;;;16.99;80.91
74905;BME280;63465;50.862;6.220;2022-10-18T09:33:00;101077.59;;;16.73;81.93
74905;BME280;63465;50.862;6.220;2022-10-18T09:35:35;101071.78;;;16.65;82.12
74905;BME280;63465;50.862;6.220;2022-10-18T09:38:10;101071.13;;;16.95;80.87
74905;BME280;63465;50.862;6.220;2022-10-18T09:40:45;101067.19;;;17.02;80.04
74905;BME280;63465;50.862;6.220;2022-10-18T09:43:17;101066.59;;;17.13;79.93
74905;BME280;63465;50.862;6.220;2022-10-18T09:45:46;101066.56;;;17.46;78.99
74905;BME280;63465;50.862;6.220;2022-10-18T09:48:18;101068.81;;;17.38;79.79
74905;BME280;63465;50.862;6.220;2022-10-18T09:50:50;101078.41;;;17.42;79.56
74905;BME280;63465;50.862;6.220;2022-10-18T09:53:26;101081.88;;;17.60;79.55
74905;BME280;63465;50.862;6.220;2022-10-18T09:56:01;101087.47;;;17.24;79.31
74905;BME280;63465;50.862;6.220;2022-10-18T09:58:40;101091.47;;;17.17;79.86
74905;BME280;63465;50.862;6.220;2022-10-18T10:01:10;101087.34;;;17.43;78.89
74905;BME280;63465;50.862;6.220;2022-10-18T10:03:38;101092.63;;;17.60;77.95
74905;BME280;63465;50.862;6.220;2022-10-18T10:06:20;101099.81;;;17.60;78.76
74905;BME280;63465;50.862;6.220;2022-10-18T10:08:54;101098.84;;;17.45;79.17
74905;BME280;63465;50.862;6.220;2022-10-18T10:11:32;101102.19;;;17.17;79.72
74905;BME280;63465;50.862;6.220;2022-10-18T10:14:07;101102.28;;;16.98;80.58
74905;BME280;63465;50.862;6.220;2022-10-18T10:16:43;101104.97;;;16.98;81.27
74905;BME280;63465;50.862;6.220;2022-10-18T10:19:17;101106.16;;;17.25;80.49
74905;BME280;63465;50.862;6.220;2022-10-18T10:21:45;101107.13;;;17.24;80.47
74905;BME280;63465;50.862;6.220;2022-10-18T10:24:27;101113.97;;;17.30;80.21
74905;BME280;63465;50.862;6.220;2022-10-18T10:27:00;101108.50;;;16.98;80.71
74905;BME280;63465;50.862;6.220;2022-10-18T10:29:50;101112.06;;;17.32;79.84
74905;BME280;63465;50.862;6.220;2022-10-18T10:32:20;101109.75;;;17.58;79.27
74905;BME280;63465;50.862;6.220;2022-10-18T10:34:47;101115.75;;;18.11;76.55
74905;BME280;63465;50.862;6.220;2022-10-18T10:37:23;101114.25;;;18.21;75.29
74905;BME280;63465;50.862;6.220;2022-10-18T10:40:15;101101.41;;;18.26;76.31
74905;BME280;63465;50.862;6.220;2022-10-18T10:42:55;101105.31;;;18.81;72.89
74905;BME280;63465;50.862;6.220;2022-10-18T10:45:24;101106.88;;;20.26;68.75
74905;BME280;63465;50.862;6.220;2022-10-18T10:47:52;101107.81;;;21.92;62.57
74905;BME280;63465;50.862;6.220;2022-10-18T10:50:23;101114.03;;;22.30;61.45
74905;BME280;63465;50.862;6.220;2022-10-18T10:52:51;101104.72;;;19.63;68.63
74905;BME280;63465;50.862;6.220;2022-10-18T10:55:23;101104.56;;;18.94;72.24
74905;BME280;63465;50.862;6.220;2022-10-18T10:57:53;101110.66;;;18.67;72.75
74905;BME280;63465;50.862;6.220;2022-10-18T11:00:45;101125.09;;;18.20;74.32
74905;BME280;63465;50.862;6.220;2022-10-18T11:03:13;101123.91;;;17.93;76.42
74905;BME280;63465;50.862;6.220;2022-10-18T11:05:45;101122.41;;;17.56;77.05
74905;BME280;63465;50.862;6.220;2022-10-18T11:08:15;101124.47;;;17.51;78.00
74905;BME280;63465;50.862;6.220;2022-10-18T11:10:53;101122.47;;;17.05;78.88
74905;BME280;63465;50.862;6.220;2022-10-18T11:13:30;101121.41;;;17.25;79.17
74905;BME280;63465;50.862;6.220;2022-10-18T11:16:04;101119.81;;;17.21;78.53
74905;BME280;63465;50.862;6.220;2022-10-18T11:18:36;101119.97;;;17.35;78.40
74905;BME280;63465;50.862;6.220;2022-10-18T11:21:06;101126.78;;;17.41;78.00
74905;BME280;63465;50.862;6.220;2022-10-18T11:23:37;101110.00;;;18.78;71.75
74905;BME280;63465;50.862;6.220;2022-10-18T11:26:27;101108.66;;;19.57;68.07
74905;BME280;63465;50.862;6.220;2022-10-18T11:29:06;101113.16;;;20.40;64.44
74905;BME280;63465;50.862;6.220;2022-10-18T11:31:42;101107.84;;;21.04;63.13
74905;BME280;63465;50.862;6.220;2022-10-18T11:34:29;101105.06;;;20.80;62.87
74905;BME280;63465;50.862;6.220;2022-10-18T11:37:03;101111.91;;;20.58;63.36
74905;BME280;63465;50.862;6.220;2022-10-18T11:39:44;101105.28;;;21.15;61.10
74905;BME280;63465;50.862;6.220;2022-10-18T11:42:20;101111.28;;;21.45;59.89
74905;BME280;63465;50.862;6.220;2022-10-18T11:44:56;101105.72;;;20.83;62.18
74905;BME280;63465;50.862;6.220;2022-10-18T11:47:34;101106.22;;;21.90;58.15
74905;BME280;63465;50.862;6.220;2022-10-18T11:50:09;101098.28;;;23.40;55.27
74905;BME280;63465;50.862;6.220;2022-10-18T11:52:44;101096.19;;;22.03;57.92
74905;BME280;63465;50.862;6.220;2022-10-18T11:55:28;101094.91;;;22.20;57.45
74905;BME280;63465;50.862;6.220;2022-10-18T11:58:03;101102.09;;;20.17;62.31
74905;BME280;63465;50.862;6.220;2022-10-18T12:00:42;101104.19;;;21.31;60.39
74905;BME280;63465;50.862;6.220;2022-10-18T12:03:20;101104.53;;;22.00;57.86
74905;BME280;63465;50.862;6.220;2022-10-18T12:05:49;101089.22;;;21.64;56.58
74905;BME280;63465;50.862;6.220;2022-10-18T12:08:20;101093.47;;;21.55;56.53
74905;BME280;63465;50.862;6.220;2022-10-18T12:10:50;101085.09;;;21.08;59.35
74905;BME280;63465;50.862;6.220;2022-10-18T12:13:24;101082.59;;;21.81;57.30
74905;BME280;63465;50.862;6.220;2022-10-18T12:15:55;101077.31;;;21.66;57.97
74905;BME280;63465;50.862;6.220;2022-10-18T12:18:23;101081.09;;;21.77;57.19
74905;BME280;63465;50.862;6.220;2022-10-18T12:20:53;101079.50;;;22.09;56.20
74905;BME280;63465;50.862;6.220;2022-10-18T12:23:32;101075.63;;;21.52;56.59
74905;BME280;63465;50.862;6.220;2022-10-18T12:26:03;101074.00;;;19.94;62.62
74905;BME280;63465;50.862;6.220;2022-10-18T12:28:40;101073.88;;;18.53;67.42
74905;BME280;63465;50.862;6.220;2022-10-18T12:31:17;101068.09;;;19.04;67.10
74905;BME280;63465;50.862;6.220;2022-10-18T12:33:49;101082.59;;;19.16;66.79
74905;BME280;63465;50.862;6.220;2022-10-18T12:36:33;101096.16;;;19.14;64.75
74905;BME280;63465;50.862;6.220;2022-10-18T12:39:11;101076.72;;;19.09;64.44
74905;BME280;63465;50.862;6.220;2022-10-18T12:41:52;101076.31;;;19.15;64.95
74905;BME280;63465;50.862;6.220;2022-10-18T12:44:27;101082.88;;;18.52;66.81
74905;BME280;63465;50.862;6.220;2022-10-18T12:46:57;101074.63;;;18.69;66.71
74905;BME280;63465;50.862;6.220;2022-10-18T12:49:28;101075.63;;;18.68;66.39
74905;BME280;63465;50.862;6.220;2022-10-18T12:51:56;101071.84;;;18.71;66.31
74905;BME280;63465;50.862;6.220;2022-10-18T12:54:26;101071.94;;;18.55;67.15
74905;BME280;63465;50.862;6.220;2022-10-18T12:56:53;101073.41;;;18.61;66.02
74905;BME280;63465;50.862;6.220;2022-10-18T12:59:48;101076.56;;;18.53;65.62
74905;BME280;63465;50.862;6.220;2022-10-18T13:02:36;101075.28;;;18.44;66.40
74905;BME280;63465;50.862;6.220;2022-10-18T13:08:07;101079.53;;;18.48;66.59
74905;BME280;63465;50.862;6.220;2022-10-18T13:11:25;101077.72;;;18.33;67.18